Time;durP1;ratioP1;P1;durP2;ratioP2;P2;SDS_P1;SDS_P2;PMS_P1;PMS_P2;Temp;Humidity;BMP_temperature;BMP_pressure;BME280_temperature;BME280_humidity;BME280_pressure;Samples;Min_cycle;Max_cycle;Signal;HPM_P1;HPM_P2
2023/08/03 00:01:52;;;;;;;3.43;1.50;;;16.30;99.90;;;;;;5067176;28;20245;-74
2023/08/03 00:04:36;;;;;;;12.13;1.70;;;16.30;99.90;;;;;;5061278;28;20182;-72
2023/08/03 00:07:20;;;;;;;4.40;1.63;;;16.30;99.90;;;;;;5060268;28;20209;-73
2023/08/03 00:10:04;;;;;;;9.03;2.00;;;16.20;99.90;;;;;;5067954;28;20565;-73
2023/08/03 00:12:50;;;;;;;6.03;1.70;;;16.20;99.90;;;;;;5068824;28;20936;-73
2023/08/03 00:15:34;;;;;;;5.10;2.00;;;16.20;99.90;;;;;;5067969;28;20194;-73
2023/08/03 00:18:18;;;;;;;5.63;1.73;;;16.20;99.90;;;;;;5061783;28;20248;-74
2023/08/03 00:21:03;;;;;;;3.93;1.37;;;16.20;99.90;;;;;;5060356;28;20734;-72
2023/08/03 00:23:47;;;;;;;4.60;1.57;;;16.20;99.90;;;;;;5065188;28;20706;-70
2023/08/03 00:26:31;;;;;;;5.57;1.80;;;16.20;99.90;;;;;;5060056;28;20288;-73
2023/08/03 00:29:15;;;;;;;4.90;1.63;;;16.20;99.90;;;;;;5063099;28;20218;-72
2023/08/03 00:32:02;;;;;;;5.00;1.40;;;16.20;99.90;;;;;;5071577;28;20236;-73
2023/08/03 00:34:46;;;;;;;5.17;1.90;;;16.20;99.90;;;;;;5058311;28;20202;-73
2023/08/03 00:37:30;;;;;;;9.33;1.80;;;16.20;99.90;;;;;;5069292;28;20252;-72
2023/08/03 00:40:15;;;;;;;5.27;1.63;;;16.20;99.90;;;;;;5064782;28;20241;-72
2023/08/03 00:43:04;;;;;;;5.03;1.40;;;16.20;99.90;;;;;;5069267;28;20181;-73
2023/08/03 00:45:48;;;;;;;3.53;1.13;;;16.20;99.90;;;;;;5063534;28;20284;-73
2023/08/03 00:48:32;;;;;;;8.37;1.40;;;16.20;99.90;;;;;;5061945;28;20717;-74
2023/08/03 00:51:16;;;;;;;7.87;1.30;;;16.20;99.90;;;;;;5060885;28;20190;-72
2023/08/03 00:54:02;;;;;;;2.40;1.40;;;16.20;99.90;;;;;;5061163;28;20189;-72
2023/08/03 00:56:46;;;;;;;4.07;1.30;;;16.20;99.90;;;;;;5067818;28;20233;-73
2023/08/03 00:59:30;;;;;;;6.33;1.63;;;16.20;99.90;;;;;;5065374;28;20226;-72
2023/08/03 01:02:15;;;;;;;6.57;2.03;;;16.20;99.90;;;;;;5068605;28;20190;-72
2023/08/03 01:04:59;;;;;;;5.43;1.30;;;16.30;99.90;;;;;;5069539;28;20258;-72
2023/08/03 01:07:43;;;;;;;5.43;1.40;;;16.30;99.90;;;;;;5068467;28;20279;-72
2023/08/03 01:10:28;;;;;;;6.57;1.47;;;16.30;99.90;;;;;;5065333;28;20572;-72
2023/08/03 01:13:12;;;;;;;3.83;1.10;;;16.30;99.90;;;;;;5066310;28;20216;-72
2023/08/03 01:15:58;;;;;;;9.43;1.83;;;16.30;99.90;;;;;;5069271;28;20186;-73
2023/08/03 01:18:42;;;;;;;3.47;1.20;;;16.30;99.90;;;;;;5062115;28;20218;-71
2023/08/03 01:21:34;;;;;;;6.47;1.70;;;16.30;99.90;;;;;;5065072;28;20240;-71
2023/08/03 01:24:19;;;;;;;5.47;1.50;;;16.20;99.90;;;;;;5056474;28;20267;-73
2023/08/03 01:27:04;;;;;;;3.47;1.20;;;16.10;99.90;;;;;;5058617;28;20374;-73
2023/08/03 01:29:49;;;;;;;3.63;1.60;;;16.40;99.90;;;;;;5067862;28;20186;-71
2023/08/03 01:32:33;;;;;;;9.27;1.37;;;16.30;99.90;;;;;;5065281;28;20194;-72
2023/08/03 01:35:18;;;;;;;7.53;1.77;;;16.30;99.90;;;;;;5055932;28;20223;-73
2023/08/03 01:38:02;;;;;;;7.57;2.08;;;16.30;99.90;;;;;;5057589;28;20227;-72
2023/08/03 01:40:47;;;;;;;5.33;1.53;;;16.30;99.90;;;;;;5059280;28;20217;-71
2023/08/03 01:43:31;;;;;;;4.67;1.50;;;16.30;99.90;;;;;;5063921;28;20236;-73
2023/08/03 01:46:15;;;;;;;8.35;1.80;;;16.30;99.90;;;;;;5055184;28;20186;-74
2023/08/03 01:48:59;;;;;;;6.80;1.60;;;16.30;99.90;;;;;;5066678;28;20218;-72
2023/08/03 01:51:44;;;;;;;3.33;1.37;;;16.30;99.90;;;;;;5062158;28;20236;-72
2023/08/03 01:54:28;;;;;;;3.13;1.47;;;16.30;99.90;;;;;;5063171;28;20214;-73
2023/08/03 01:57:12;;;;;;;4.80;1.87;;;16.30;99.90;;;;;;5061366;28;20198;-73
2023/08/03 01:59:56;;;;;;;4.87;1.53;;;16.30;99.90;;;;;;5064156;28;20238;-72
2023/08/03 02:02:40;;;;;;;5.20;1.60;;;16.30;99.90;;;;;;5057783;28;20182;-73
2023/08/03 02:05:24;;;;;;;5.47;1.70;;;16.30;99.90;;;;;;5071026;28;20197;-73
2023/08/03 02:08:08;;;;;;;8.40;1.90;;;16.30;99.90;;;;;;5062008;28;20229;-72
2023/08/03 02:10:52;;;;;;;4.13;1.57;;;16.20;99.90;;;;;;5063721;28;20218;-72
2023/08/03 02:13:39;;;;;;;6.05;1.83;;;16.30;99.90;;;;;;5056155;28;20239;-72
2023/08/03 02:16:23;;;;;;;4.60;1.53;;;16.20;99.90;;;;;;5058437;28;20249;-71
2023/08/03 02:19:09;;;;;;;6.70;1.80;;;;;;;;;;5056243;28;20266;-72
2023/08/03 02:21:53;;;;;;;7.50;1.47;;;16.10;99.90;;;;;;5060774;28;20193;-73
2023/08/03 02:24:37;;;;;;;4.60;1.50;;;16.20;99.90;;;;;;5068619;28;20227;-73
2023/08/03 02:27:21;;;;;;;5.00;1.70;;;16.20;99.90;;;;;;5064283;28;20266;-73
2023/08/03 02:30:06;;;;;;;5.20;1.20;;;16.20;99.90;;;;;;5069255;28;20566;-72
2023/08/03 02:32:51;;;;;;;3.90;1.20;;;16.00;99.90;;;;;;5063008;28;20195;-72
2023/08/03 02:35:37;;;;;;;4.13;1.17;;;15.90;99.90;;;;;;5066413;28;20189;-73
2023/08/03 02:38:27;;;;;;;1.30;1.10;;;16.00;99.90;;;;;;5061827;28;20221;-72
2023/08/03 02:41:11;;;;;;;2.37;1.03;;;16.10;99.90;;;;;;5065600;28;20228;-72
2023/08/03 02:43:55;;;;;;;3.10;1.10;;;16.10;99.90;;;;;;5068036;28;20190;-72
2023/08/03 02:46:40;;;;;;;2.63;1.20;;;16.10;99.90;;;;;;5062099;28;20308;-73
2023/08/03 02:49:26;;;;;;;2.40;1.00;;;;;;;;;;5063948;28;20214;-72
2023/08/03 02:52:10;;;;;;;5.03;1.07;;;16.20;99.90;;;;;;5063733;28;20194;-72
2023/08/03 02:54:54;;;;;;;1.80;1.00;;;16.10;99.90;;;;;;5067434;28;20205;-72
2023/08/03 02:57:38;;;;;;;2.50;0.97;;;16.10;99.90;;;;;;5064687;28;20297;-72
2023/08/03 03:00:22;;;;;;;2.30;1.00;;;16.10;99.90;;;;;;5063642;28;20219;-72
2023/08/03 03:03:07;;;;;;;1.03;0.73;;;16.10;99.90;;;;;;5057635;28;20254;-72
2023/08/03 03:05:53;;;;;;;2.47;1.05;;;16.10;99.90;;;;;;5060704;28;20549;-72
2023/08/03 03:08:37;;;;;;;1.10;1.00;;;16.10;99.90;;;;;;5067233;28;20225;-71
2023/08/03 03:11:21;;;;;;;1.50;0.87;;;16.10;99.90;;;;;;5068864;28;20194;-73
2023/08/03 03:14:05;;;;;;;1.93;0.80;;;16.10;99.90;;;;;;5063011;28;20662;-71
2023/08/03 03:16:49;;;;;;;3.00;0.80;;;16.10;99.90;;;;;;5066866;28;20264;-71
2023/08/03 03:19:34;;;;;;;2.30;1.00;;;16.10;99.90;;;;;;5067844;28;20298;-71
2023/08/03 03:22:18;;;;;;;1.90;1.00;;;16.10;99.90;;;;;;5059172;28;20194;-74
2023/08/03 03:25:04;;;;;;;0.90;0.90;;;16.10;99.90;;;;;;5061601;28;20191;-72
2023/08/03 03:27:48;;;;;;;2.80;1.00;;;16.10;99.90;;;;;;5069693;28;20225;-72
2023/08/03 03:30:32;;;;;;;1.70;0.97;;;16.10;99.90;;;;;;5066583;28;20182;-72
2023/08/03 03:33:16;;;;;;;1.40;1.20;;;16.10;99.90;;;;;;5063371;28;20190;-72
2023/08/03 03:36:00;;;;;;;2.40;1.17;;;16.10;99.90;;;;;;5067586;28;20201;-73
2023/08/03 03:38:44;;;;;;;6.13;1.60;;;16.10;99.90;;;;;;5067913;28;20264;-71
2023/08/03 03:41:28;;;;;;;1.57;1.37;;;16.10;99.90;;;;;;5070745;28;20251;-73
2023/08/03 03:44:12;;;;;;;5.10;1.67;;;16.10;99.90;;;;;;5069815;28;20194;-73
2023/08/03 03:46:56;;;;;;;2.27;1.50;;;16.20;99.90;;;;;;5070091;28;20202;-72
2023/08/03 03:49:41;;;;;;;2.53;1.53;;;16.20;99.90;;;;;;5066535;28;20243;-72
2023/08/03 03:52:25;;;;;;;2.37;1.50;;;16.20;99.90;;;;;;5060024;28;20605;-72
2023/08/03 03:55:09;;;;;;;1.87;1.77;;;16.20;99.90;;;;;;5069378;28;20229;-72
2023/08/03 03:57:55;;;;;;;1.57;1.47;;;16.20;99.90;;;;;;5064285;28;20713;-71
2023/08/03 04:00:43;;;;;;;2.53;2.10;;;16.20;99.90;;;;;;5058726;28;20214;-72
2023/08/03 04:03:27;;;;;;;2.93;2.10;;;16.20;99.90;;;;;;5068792;28;20190;-71
2023/08/03 04:06:11;;;;;;;2.72;1.98;;;16.20;99.90;;;;;;5065356;28;20194;-73
2023/08/03 04:08:55;;;;;;;1.93;1.77;;;16.20;99.90;;;;;;5067239;28;20237;-72
2023/08/03 04:11:39;;;;;;;1.80;1.67;;;16.20;99.90;;;;;;5063514;28;20201;-73
2023/08/03 04:14:23;;;;;;;1.70;1.60;;;16.20;99.90;;;;;;5062668;28;20245;-73
2023/08/03 04:17:07;;;;;;;2.13;1.93;;;16.20;99.90;;;;;;5059081;28;20577;-73
2023/08/03 04:19:51;;;;;;;3.17;2.30;;;16.30;99.90;;;;;;5069223;28;20241;-73
2023/08/03 04:22:35;;;;;;;3.07;2.30;;;16.20;99.90;;;;;;5061755;28;20181;-72
2023/08/03 04:25:20;;;;;;;3.47;1.90;;;16.10;99.90;;;;;;5070295;28;20186;-74
2023/08/03 04:28:04;;;;;;;2.20;2.00;;;16.10;99.90;;;;;;5067726;28;20260;-72
2023/08/03 04:30:48;;;;;;;2.10;1.90;;;16.30;99.90;;;;;;5064278;28;20245;-73
2023/08/03 04:33:32;;;;;;;2.40;2.20;;;16.30;99.90;;;;;;5069325;28;20182;-73
2023/08/03 04:36:16;;;;;;;3.20;2.17;;;16.30;99.90;;;;;;5068713;28;20197;-73
2023/08/03 04:39:00;;;;;;;2.03;1.90;;;16.30;99.90;;;;;;5068901;28;20599;-72
2023/08/03 04:41:44;;;;;;;2.43;1.90;;;16.30;99.90;;;;;;5066135;28;20186;-73
2023/08/03 04:44:28;;;;;;;5.10;2.60;;;16.30;99.90;;;;;;5066353;28;20267;-71
2023/08/03 04:47:13;;;;;;;3.00;2.13;;;16.30;99.90;;;;;;5069368;28;20194;-72
2023/08/03 04:49:57;;;;;;;5.67;2.70;;;16.30;99.90;;;;;;5069255;28;20281;-72
2023/08/03 04:52:41;;;;;;;4.60;2.33;;;16.40;99.90;;;;;;5069134;28;20185;-74
2023/08/03 04:55:25;;;;;;;6.73;2.40;;;16.40;99.90;;;;;;5064374;28;20635;-73
2023/08/03 04:58:09;;;;;;;4.80;2.33;;;16.30;99.90;;;;;;5070259;28;20575;-72
2023/08/03 05:00:53;;;;;;;3.13;2.57;;;16.30;99.90;;;;;;5052753;28;20238;-73
2023/08/03 05:03:37;;;;;;;4.77;2.70;;;16.30;99.90;;;;;;5062715;28;20263;-72
2023/08/03 05:06:21;;;;;;;4.23;2.90;;;16.40;99.90;;;;;;5058358;28;20185;-72
2023/08/03 05:09:05;;;;;;;4.60;2.47;;;16.40;99.90;;;;;;5084881;28;20263;-71
2023/08/03 05:11:50;;;;;;;3.33;2.33;;;16.40;99.90;;;;;;5059010;28;20232;-73
2023/08/03 05:14:34;;;;;;;3.13;1.67;;;16.40;99.90;;;;;;5061239;28;20186;-73
2023/08/03 05:17:18;;;;;;;2.67;1.80;;;16.30;99.90;;;;;;5062128;28;20240;-72
2023/08/03 05:20:02;;;;;;;3.83;2.00;;;16.40;99.90;;;;;;5063868;28;20583;-72
2023/08/03 05:22:46;;;;;;;4.60;2.00;;;16.40;99.90;;;;;;5065985;28;20232;-72
2023/08/03 05:25:30;;;;;;;2.20;2.00;;;16.30;99.90;;;;;;5062904;28;20256;-72
2023/08/03 05:28:14;;;;;;;3.00;2.70;;;16.40;99.90;;;;;;5067549;28;20275;-73
2023/08/03 05:30:58;;;;;;;5.95;2.75;;;16.40;99.90;;;;;;5062773;28;20209;-72
2023/08/03 05:33:43;;;;;;;4.13;3.00;;;16.40;99.90;;;;;;5063289;28;20193;-73
2023/08/03 05:36:27;;;;;;;5.30;3.47;;;16.40;99.90;;;;;;5065528;28;20217;-73
2023/08/03 05:39:12;;;;;;;5.73;3.43;;;16.40;99.90;;;;;;5058037;28;20667;-72
2023/08/03 05:41:57;;;;;;;5.30;3.30;;;16.50;99.90;;;;;;5064566;28;20309;-71
2023/08/03 05:44:41;;;;;;;7.73;3.93;;;16.50;99.90;;;;;;5062334;28;20205;-72
2023/08/03 05:47:25;;;;;;;5.50;3.47;;;16.50;99.90;;;;;;5062926;28;20676;-73
2023/08/03 05:50:13;;;;;;;6.10;4.30;;;16.50;99.90;;;;;;5065928;28;20244;-72
2023/08/03 05:52:57;;;;;;;4.55;3.97;;;16.60;99.90;;;;;;5061645;28;20193;-71
2023/08/03 05:55:43;;;;;;;5.27;4.17;;;16.60;99.90;;;;;;5064183;28;20195;-73
2023/08/03 05:58:27;;;;;;;5.37;3.50;;;16.50;99.90;;;;;;5066524;28;20225;-72
2023/08/03 06:01:12;;;;;;;5.50;3.80;;;16.40;99.90;;;;;;5063362;28;20237;-73
2023/08/03 06:04:02;;;;;;;7.80;3.67;;;16.40;99.90;;;;;;5061161;28;20189;-73
2023/08/03 06:06:47;;;;;;;4.37;3.60;;;16.60;99.90;;;;;;5065543;28;20206;-71
2023/08/03 06:09:34;;;;;;;6.60;3.93;;;16.60;99.90;;;;;;5064729;28;20221;-73
2023/08/03 06:12:32;;;;;;;5.20;3.70;;;16.60;99.90;;;;;;5064133;28;20713;-73
2023/08/03 06:15:20;;;;;;;4.32;3.92;;;16.60;99.90;;;;;;5064362;28;20202;-73
2023/08/03 06:18:08;;;;;;;4.23;2.90;;;16.70;99.90;;;;;;5061740;28;20264;-72
2023/08/03 06:20:52;;;;;;;2.97;2.67;;;16.70;99.90;;;;;;5063459;28;20577;-72
2023/08/03 06:23:39;;;;;;;3.90;2.60;;;16.70;99.90;;;;;;5066087;28;20246;-72
2023/08/03 06:26:25;;;;;;;3.07;2.07;;;16.80;99.90;;;;;;5061255;28;20300;-70
2023/08/03 06:29:13;;;;;;;2.25;1.92;;;16.80;99.90;;;;;;5063342;28;20222;-73
2023/08/03 06:31:57;;;;;;;1.43;1.33;;;16.90;99.90;;;;;;5062870;28;20231;-73
2023/08/03 06:34:41;;;;;;;2.50;1.70;;;16.80;99.90;;;;;;5062018;28;20287;-73
2023/08/03 06:37:27;;;;;;;3.47;1.60;;;;;;;;;;5063852;28;20185;-71
2023/08/03 06:40:12;;;;;;;5.63;1.52;;;16.80;99.90;;;;;;5062840;28;20701;-71
2023/08/03 06:42:57;;;;;;;1.30;1.20;;;;;;;;;;5061913;28;20285;-71
2023/08/03 06:45:42;;;;;;;2.88;1.23;;;16.90;99.90;;;;;;5062601;28;20229;-73
2023/08/03 06:48:27;;;;;;;1.45;1.30;;;17.10;99.90;;;;;;5062344;28;20218;-71
2023/08/03 06:51:12;;;;;;;1.15;1.00;;;17.10;99.90;;;;;;5064845;28;20271;-73
2023/08/03 06:53:56;;;;;;;1.73;1.20;;;17.10;99.90;;;;;;5063656;28;20210;-72
2023/08/03 06:56:40;;;;;;;3.03;1.10;;;17.10;99.90;;;;;;5065374;28;20186;-72
2023/08/03 06:59:24;;;;;;;3.53;1.30;;;17.10;99.90;;;;;;5063945;28;20308;-72
2023/08/03 07:02:08;;;;;;;0.98;0.80;;;17.00;99.90;;;;;;5064891;28;20193;-73
2023/08/03 07:04:52;;;;;;;4.13;1.40;;;17.00;99.90;;;;;;5071079;28;20218;-73
2023/08/03 07:07:37;;;;;;;3.10;1.10;;;17.10;99.90;;;;;;5065800;28;20314;-73
2023/08/03 07:10:21;;;;;;;2.03;1.00;;;17.00;99.90;;;;;;5070549;28;20198;-72
2023/08/03 07:13:05;;;;;;;3.58;1.50;;;17.10;99.90;;;;;;5065928;28;20216;-72
2023/08/03 07:15:49;;;;;;;3.25;1.35;;;17.30;99.90;;;;;;5084798;28;20189;-71
2023/08/03 07:18:33;;;;;;;2.10;1.20;;;17.30;99.90;;;;;;5065804;28;20241;-71
2023/08/03 07:21:17;;;;;;;2.15;1.15;;;17.30;99.90;;;;;;5066583;28;20241;-72
2023/08/03 07:24:02;;;;;;;2.88;1.10;;;17.40;99.90;;;;;;5067324;28;20200;-71
2023/08/03 07:26:48;;;;;;;1.73;1.10;;;17.40;99.90;;;;;;5066761;28;20214;-72
2023/08/03 07:29:34;;;;;;;2.00;0.95;;;17.50;99.90;;;;;;5065571;28;20233;-72
2023/08/03 07:32:19;;;;;;;1.17;1.00;;;17.50;99.90;;;;;;5067050;28;20193;-72
2023/08/03 07:35:04;;;;;;;1.60;1.05;;;17.60;99.90;;;;;;5067718;28;20182;-73
2023/08/03 07:37:48;;;;;;;1.23;0.95;;;17.70;99.90;;;;;;5064908;28;20361;-73
2023/08/03 07:40:32;;;;;;;2.78;1.23;;;17.40;99.90;;;;;;5067803;28;20226;-72
2023/08/03 07:43:16;;;;;;;4.18;1.38;;;17.80;99.90;;;;;;5065985;28;20665;-72
2023/08/03 07:46:06;;;;;;;1.35;1.13;;;17.80;99.90;;;;;;5064228;28;20259;-73
2023/08/03 07:48:50;;;;;;;3.40;1.35;;;17.80;99.90;;;;;;5064619;28;20221;-72
2023/08/03 07:51:34;;;;;;;1.63;1.30;;;17.80;99.90;;;;;;5067649;28;20216;-72
2023/08/03 07:54:18;;;;;;;2.83;1.48;;;17.80;99.90;;;;;;5066327;28;20178;-72
2023/08/03 07:57:03;;;;;;;3.97;1.60;;;17.90;99.90;;;;;;5065405;28;20904;-72
2023/08/03 07:59:48;;;;;;;3.85;1.33;;;18.00;99.90;;;;;;5066313;28;20232;-71
2023/08/03 08:02:33;;;;;;;2.08;1.40;;;18.00;99.90;;;;;;5063591;28;20230;-73
2023/08/03 08:05:17;;;;;;;2.58;1.95;;;18.10;99.90;;;;;;5066604;28;20197;-72
2023/08/03 08:08:01;;;;;;;2.45;1.50;;;18.10;99.90;;;;;;5067358;28;20253;-72
2023/08/03 08:10:53;;;;;;;2.70;1.42;;;18.20;99.90;;;;;;5068394;28;20190;-71
2023/08/03 08:13:38;;;;;;;5.25;1.55;;;18.30;99.90;;;;;;5065062;28;20194;-73
2023/08/03 08:16:22;;;;;;;2.53;1.55;;;18.30;99.90;;;;;;5068819;28;20194;-72
2023/08/03 08:19:06;;;;;;;3.90;1.70;;;18.30;99.90;;;;;;5064344;28;20610;-71
2023/08/03 08:21:50;;;;;;;4.15;1.52;;;18.40;99.90;;;;;;5065884;28;20570;-72
2023/08/03 08:24:35;;;;;;;4.10;1.98;;;18.40;99.90;;;;;;5065316;28;20181;-73
2023/08/03 08:27:19;;;;;;;4.40;1.90;;;18.50;99.90;;;;;;5066228;28;20735;-73
2023/08/03 08:30:04;;;;;;;5.32;2.13;;;18.60;99.90;;;;;;5068771;28;20256;-72
2023/08/03 08:32:49;;;;;;;2.72;1.70;;;18.70;99.90;;;;;;5065541;28;20194;-73
2023/08/03 08:35:33;;;;;;;3.10;1.70;;;18.70;99.90;;;;;;5067384;28;20743;-73
2023/08/03 08:38:17;;;;;;;4.68;1.85;;;18.70;99.90;;;;;;5068480;28;20309;-72
2023/08/03 08:41:05;;;;;;;2.92;1.60;;;18.80;99.90;;;;;;5065469;28;20267;-73
2023/08/03 08:43:49;;;;;;;2.88;1.80;;;18.90;99.90;;;;;;5065111;28;20228;-72
2023/08/03 08:46:34;;;;;;;2.83;1.92;;;18.80;99.90;;;;;;5065830;28;20193;-74
2023/08/03 08:49:18;;;;;;;5.35;1.70;;;19.00;99.90;;;;;;5063941;28;20272;-72
2023/08/03 08:52:03;;;;;;;2.40;1.50;;;19.20;99.90;;;;;;5067220;28;20273;-73
2023/08/03 08:54:47;;;;;;;3.00;1.63;;;19.30;99.90;;;;;;5065733;28;20584;-72
2023/08/03 08:57:31;;;;;;;3.67;1.67;;;19.40;99.90;;;;;;5067570;28;20303;-73
2023/08/03 09:00:16;;;;;;;2.42;1.50;;;19.40;99.90;;;;;;5066900;28;20205;-72
2023/08/03 09:03:01;;;;;;;2.65;1.75;;;19.50;99.90;;;;;;5065230;28;20241;-71
2023/08/03 09:05:57;;;;;;;3.35;1.55;;;19.50;99.90;;;;;;5066197;28;20182;-71
2023/08/03 09:08:53;;;;;;;5.00;1.70;;;19.50;99.90;;;;;;5065777;28;20229;-73
2023/08/03 09:11:39;;;;;;;2.55;1.95;;;19.40;99.90;;;;;;5065480;28;20365;-73
2023/08/03 09:14:23;;;;;;;3.75;1.67;;;19.40;99.90;;;;;;5064140;28;20190;-72
2023/08/03 09:17:18;;;;;;;5.63;1.55;;;;;;;;;;5063961;28;20202;-73
2023/08/03 09:20:03;;;;;;;3.40;1.58;;;19.50;99.90;;;;;;5063911;28;20298;-72
2023/08/03 09:22:47;;;;;;;2.28;1.30;;;19.40;99.90;;;;;;5064193;28;20767;-72
2023/08/03 09:25:31;;;;;;;2.72;1.27;;;19.50;99.90;;;;;;5063051;28;20261;-72
2023/08/03 09:28:15;;;;;;;3.60;1.60;;;19.50;99.90;;;;;;5062212;28;20212;-72
2023/08/03 09:30:59;;;;;;;4.85;1.50;;;19.60;99.90;;;;;;5063696;28;20577;-72
2023/08/03 09:33:54;;;;;;;3.55;1.60;;;;;;;;;;5065069;28;20268;-72
2023/08/03 09:36:48;;;;;;;3.08;1.08;;;;;;;;;;5065761;28;20202;-72
2023/08/03 09:39:34;;;;;;;2.17;1.20;;;19.60;99.90;;;;;;5063719;28;20348;-74
2023/08/03 09:42:20;;;;;;;3.47;1.50;;;19.50;99.90;;;;;;5063324;28;20212;-72
2023/08/03 09:45:06;;;;;;;5.32;1.17;;;19.70;99.90;;;;;;5066821;28;20205;-74
2023/08/03 09:47:51;;;;;;;4.20;1.35;;;19.80;99.90;;;;;;5061908;28;20233;-71
2023/08/03 09:50:36;;;;;;;6.40;1.23;;;19.70;99.90;;;;;;5065468;28;20237;-72
2023/08/03 09:53:23;;;;;;;3.95;1.65;;;19.70;99.90;;;;;;5065725;28;20328;-72
2023/08/03 09:56:08;;;;;;;1.52;1.20;;;19.60;99.90;;;;;;5065339;28;20234;-72
2023/08/03 09:58:59;;;;;;;3.00;1.48;;;19.70;99.90;;;;;;5062531;28;20260;-71
2023/08/03 10:01:43;;;;;;;4.40;1.70;;;19.70;99.90;;;;;;5065165;28;20181;-71
2023/08/03 10:04:33;;;;;;;2.40;1.42;;;19.80;99.90;;;;;;5063363;28;20213;-72
2023/08/03 10:07:21;;;;;;;2.28;1.58;;;20.00;99.90;;;;;;5065510;28;20247;-72
2023/08/03 10:10:05;;;;;;;1.27;1.17;;;20.00;99.90;;;;;;5065163;28;20197;-73
2023/08/03 10:12:56;;;;;;;2.45;1.33;;;20.00;99.90;;;;;;5065256;28;20256;-71
2023/08/03 10:15:41;;;;;;;4.15;1.70;;;20.00;99.90;;;;;;5064761;28;20269;-74
2023/08/03 10:18:27;;;;;;;6.50;2.28;;;20.10;99.90;;;;;;5063511;28;20341;-73
2023/08/03 10:21:13;;;;;;;3.28;2.13;;;;;;;;;;5063972;28;20243;-73
2023/08/03 10:24:11;;;;;;;6.63;2.70;;;;;;;;;;5063980;28;20181;-72
2023/08/03 10:27:18;;;;;;;4.18;2.45;;;19.80;99.90;;;;;;5065162;28;20257;-73
2023/08/03 10:30:03;;;;;;;4.50;2.45;;;19.70;99.90;;;;;;5063804;28;20744;-74
2023/08/03 10:32:51;;;;;;;2.63;1.42;;;19.60;99.90;;;;;;5063197;28;20194;-73
2023/08/03 10:35:37;;;;;;;1.85;1.65;;;19.40;99.90;;;;;;5064966;28;20189;-73
2023/08/03 10:38:22;;;;;;;3.38;1.88;;;19.30;99.90;;;;;;5068414;28;20271;-72
2023/08/03 10:41:26;;;;;;;3.25;1.90;;;19.20;99.90;;;;;;5067921;28;20212;-73
2023/08/03 10:44:12;;;;;;;2.17;1.98;;;19.30;99.90;;;;;;5068499;28;20194;-72
2023/08/03 10:46:57;;;;;;;2.60;2.40;;;19.30;99.90;;;;;;5068289;28;20236;-72
2023/08/03 10:49:49;;;;;;;3.25;2.50;;;19.40;99.90;;;;;;5066074;28;20267;-72
2023/08/03 10:52:33;;;;;;;3.70;2.58;;;19.50;99.90;;;;;;5067113;28;20241;-71
2023/08/03 10:55:26;;;;;;;5.53;2.63;;;19.60;99.90;;;;;;5068575;28;20278;-72
2023/08/03 10:58:10;;;;;;;4.25;2.38;;;19.60;99.90;;;;;;5066487;28;20720;-73
2023/08/03 11:00:55;;;;;;;3.58;2.22;;;19.60;99.90;;;;;;5065431;28;20206;-72
2023/08/03 11:03:39;;;;;;;3.10;2.60;;;19.70;99.90;;;;;;5066524;28;20292;-72
2023/08/03 11:06:24;;;;;;;6.28;2.80;;;19.60;99.90;;;;;;5068890;28;20236;-72
2023/08/03 11:09:09;;;;;;;4.65;2.83;;;;;;;;;;5067486;28;20264;-74
2023/08/03 11:11:55;;;;;;;4.32;2.60;;;19.50;99.90;;;;;;5066962;28;20237;-72
2023/08/03 11:14:40;;;;;;;3.10;2.10;;;19.50;99.90;;;;;;5064568;28;20190;-73
2023/08/03 11:17:26;;;;;;;6.30;2.50;;;19.50;99.90;;;;;;5068157;28;20216;-73
2023/08/03 11:20:14;;;;;;;6.53;2.33;;;19.40;99.90;;;;;;5066737;28;20218;-73
2023/08/03 11:22:58;;;;;;;3.65;2.38;;;19.40;99.90;;;;;;5068654;28;20229;-72
2023/08/03 11:25:42;;;;;;;4.53;2.10;;;19.40;99.90;;;;;;5066801;28;20236;-73
2023/08/03 11:28:27;;;;;;;3.65;2.20;;;19.40;99.90;;;;;;5066833;28;20229;-73
2023/08/03 11:31:19;;;;;;;3.85;2.63;;;;;;;;;;5069258;28;20273;-75
2023/08/03 11:34:04;;;;;;;4.53;3.42;;;;;;;;;;5068839;28;20190;-71
2023/08/03 11:36:50;;;;;;;4.32;2.83;;;19.50;99.90;;;;;;5067373;28;20182;-73
2023/08/03 11:39:34;;;;;;;4.72;2.92;;;19.70;99.90;;;;;;5064847;28;20259;-73
2023/08/03 11:42:19;;;;;;;3.88;3.20;;;19.70;99.90;;;;;;5064357;28;20703;-72
2023/08/03 11:45:04;;;;;;;4.90;3.10;;;19.80;99.90;;;;;;5066971;28;20189;-72
2023/08/03 11:47:48;;;;;;;4.30;3.10;;;19.80;99.90;;;;;;5064764;28;20256;-72
2023/08/03 11:50:33;;;;;;;5.50;2.80;;;19.90;99.90;;;;;;5063850;28;20609;-73
2023/08/03 11:53:25;;;;;;;3.03;2.80;;;19.90;99.90;;;;;;5064344;28;20190;-71
2023/08/03 11:56:10;;;;;;;5.40;3.35;;;19.90;99.90;;;;;;5067523;28;20315;-71
2023/08/03 11:58:58;;;;;;;4.70;3.20;;;19.90;99.90;;;;;;5063572;28;20241;-72
2023/08/03 12:01:45;;;;;;;6.47;2.65;;;20.00;99.90;;;;;;5063301;28;20186;-75
2023/08/03 12:04:30;;;;;;;2.05;1.92;;;;;;;;;;5064397;28;20194;-72
2023/08/03 12:07:15;;;;;;;3.22;1.92;;;20.00;99.90;;;;;;5066263;28;20260;-73
2023/08/03 12:10:00;;;;;;;4.10;1.60;;;20.10;99.90;;;;;;5067360;28;20204;-72
2023/08/03 12:12:44;;;;;;;2.60;1.75;;;20.30;99.90;;;;;;5065490;28;20276;-73
2023/08/03 12:15:29;;;;;;;2.30;1.60;;;20.30;99.90;;;;;;5066608;28;20217;-73
2023/08/03 12:18:13;;;;;;;9.48;2.00;;;20.30;99.90;;;;;;5065967;28;20217;-72
2023/08/03 12:20:58;;;;;;;5.07;1.85;;;20.30;99.90;;;;;;5066257;28;20201;-72
2023/08/03 12:23:43;;;;;;;3.67;1.63;;;20.30;99.90;;;;;;5067932;28;20190;-72
2023/08/03 12:26:27;;;;;;;4.95;1.73;;;20.40;99.90;;;;;;5066160;28;20313;-74
2023/08/03 12:29:11;;;;;;;2.28;1.45;;;20.50;99.90;;;;;;5065510;28;20213;-72
2023/08/03 12:31:56;;;;;;;4.53;1.70;;;20.60;99.90;;;;;;5065214;28;20221;-71
2023/08/03 12:34:40;;;;;;;3.05;1.60;;;20.60;99.90;;;;;;5064864;28;20256;-73
2023/08/03 12:37:25;;;;;;;3.22;1.50;;;20.70;99.90;;;;;;5065609;28;20193;-72
2023/08/03 12:40:09;;;;;;;5.05;1.92;;;20.60;99.90;;;;;;5064580;28;20209;-72
2023/08/03 12:42:55;;;;;;;3.15;1.50;;;20.70;99.90;;;;;;5064827;28;20202;-72
2023/08/03 12:45:40;;;;;;;3.70;1.33;;;;;;;;;;5065663;28;20878;-74
2023/08/03 12:48:25;;;;;;;3.58;1.55;;;;;;;;;;5062756;28;20217;-73
2023/08/03 12:51:10;;;;;;;1.30;0.90;;;;;;;;;;5062071;28;20229;-73
2023/08/03 12:53:54;;;;;;;2.40;1.10;;;21.10;99.90;;;;;;5061094;28;20190;-73
2023/08/03 12:56:40;;;;;;;3.53;1.10;;;21.40;99.90;;;;;;5063969;28;20282;-73
2023/08/03 12:59:24;;;;;;;3.85;1.30;;;21.50;99.90;;;;;;5063062;28;20225;-73
2023/08/03 13:02:09;;;;;;;2.42;1.13;;;21.50;99.90;;;;;;5065062;28;20249;-73
2023/08/03 13:04:53;;;;;;;2.63;1.00;;;21.50;99.90;;;;;;5063677;28;20305;-73
2023/08/03 13:07:38;;;;;;;9.25;1.75;;;;;;;;;;5064281;28;20261;-74
2023/08/03 13:10:22;;;;;;;3.63;1.30;;;21.30;99.90;;;;;;5062668;28;20198;-73
2023/08/03 13:13:06;;;;;;;2.63;1.50;;;;;;;;;;5062815;28;20341;-73
2023/08/03 13:15:52;;;;;;;5.05;2.00;;;;;;;;;;5062663;28;20210;-73
2023/08/03 13:18:37;;;;;;;7.03;2.60;;;;;;;;;;5061675;28;20210;-74
2023/08/03 13:21:22;;;;;;;4.65;1.88;;;;;;;;;;5066008;28;20352;-73
2023/08/03 13:24:06;;;;;;;5.32;1.40;;;20.90;99.90;;;;;;5064674;28;20198;-73
2023/08/03 13:26:50;;;;;;;4.97;1.35;;;20.80;99.90;;;;;;5064765;28;20181;-74
2023/08/03 13:29:34;;;;;;;4.03;1.30;;;20.70;99.90;;;;;;5079343;28;20217;-74
2023/08/03 13:32:19;;;;;;;5.13;1.40;;;20.60;99.90;;;;;;5063384;28;20194;-73
2023/08/03 13:35:03;;;;;;;4.03;1.38;;;20.50;99.90;;;;;;5062197;28;20308;-71
2023/08/03 13:37:49;;;;;;;3.38;1.30;;;20.50;99.90;;;;;;5067866;28;20209;-72
2023/08/03 13:40:33;;;;;;;2.88;1.40;;;20.50;99.90;;;;;;5064340;28;20245;-72
2023/08/03 13:43:17;;;;;;;2.42;1.40;;;20.60;99.90;;;;;;5060285;28;20669;-72
2023/08/03 13:46:01;;;;;;;4.68;1.50;;;20.60;99.90;;;;;;5063319;28;20265;-73
2023/08/03 13:48:46;;;;;;;4.50;1.75;;;20.70;99.90;;;;;;5063904;28;20692;-72
2023/08/03 13:51:30;;;;;;;2.78;1.45;;;20.60;99.90;;;;;;5062154;28;20260;-71
2023/08/03 13:54:14;;;;;;;4.05;1.42;;;20.60;99.90;;;;;;5065104;28;20190;-72
2023/08/03 13:56:59;;;;;;;4.38;1.52;;;20.60;99.90;;;;;;5063969;28;20246;-72
2023/08/03 13:59:44;;;;;;;3.17;1.60;;;20.60;99.90;;;;;;5063813;28;20253;-72
2023/08/03 14:02:28;;;;;;;6.55;1.80;;;20.60;99.90;;;;;;5063800;28;20649;-71
2023/08/03 14:05:15;;;;;;;3.78;1.75;;;;;;;;;;5064344;28;20332;-72
2023/08/03 14:08:00;;;;;;;4.35;1.73;;;;;;;;;;5062286;28;20230;-71
2023/08/03 14:10:44;;;;;;;3.88;1.70;;;;;;;;;;5063353;28;20197;-72
2023/08/03 14:13:29;;;;;;;6.40;2.03;;;;;;;;;;5062796;28;20189;-72
2023/08/03 14:16:17;;;;;;;4.78;1.60;;;;;;;;;;5062814;28;20197;-72
2023/08/03 14:19:02;;;;;;;3.15;1.30;;;;;;;;;;5062482;28;20712;-70
2023/08/03 14:21:48;;;;;;;4.97;1.30;;;;;;;;;;5061645;28;20186;-71
2023/08/03 14:24:37;;;;;;;3.17;0.98;;;;;;;;;;5062965;28;20265;-73
2023/08/03 14:27:23;;;;;;;2.10;1.10;;;;;;;;;;5062814;28;20317;-73
2023/08/03 14:30:08;;;;;;;2.50;0.88;;;;;;;;;;5060712;28;20189;-72
2023/08/03 14:32:54;;;;;;;3.50;1.05;;;;;;;;;;5065353;28;20196;-72